sensor_id;sensor_type;location;lat;lon;timestamp;temperature;humidity
21625;DHT22;10974;51.034;3.744;2022-12-17T04:18:31;-2.10;99.90
21625;DHT22;10974;51.034;3.744;2022-12-17T04:21:15;-2.20;99.90
21625;DHT22;10974;51.034;3.744;2022-12-17T04:23:59;-2.30;99.90
21625;DHT22;10974;51.034;3.744;2022-12-17T04:26:43;-2.30;99.90
21625;DHT22;10974;51.034;3.744;2022-12-17T04:29:27;-2.40;99.90
21625;DHT22;10974;51.034;3.744;2022-12-17T04:32:12;-2.30;99.90
21625;DHT22;10974;51.034;3.744;2022-12-17T04:34:56;-2.40;99.90
21625;DHT22;10974;51.034;3.744;2022-12-17T04:38:00;-2.40;99.90
21625;DHT22;10974;51.034;3.744;2022-12-17T04:40:44;-2.30;99.90
21625;DHT22;10974;51.034;3.744;2022-12-17T04:43:28;-2.30;99.90
21625;DHT22;10974;51.034;3.744;2022-12-17T04:46:12;-2.20;99.90
21625;DHT22;10974;51.034;3.744;2022-12-17T04:48:56;-2.30;99.90
21625;DHT22;10974;51.034;3.744;2022-12-17T04:51:40;-2.30;99.90
21625;DHT22;10974;51.034;3.744;2022-12-17T04:54:24;-2.30;99.90
21625;DHT22;10974;51.034;3.744;2022-12-17T04:57:08;-2.20;99.90
21625;DHT22;10974;51.034;3.744;2022-12-17T04:59:52;-2.20;99.90
21625;DHT22;10974;51.034;3.744;2022-12-17T05:02:36;-2.20;99.90
21625;DHT22;10974;51.034;3.744;2022-12-17T05:05:21;-2.20;99.90
21625;DHT22;10974;51.034;3.744;2022-12-17T05:08:25;-2.20;99.90
21625;DHT22;10974;51.034;3.744;2022-12-17T05:11:09;-2.20;99.90
21625;DHT22;10974;51.034;3.744;2022-12-17T05:13:53;-2.30;99.90
21625;DHT22;10974;51.034;3.744;2022-12-17T05:16:38;-2.40;99.90
21625;DHT22;10974;51.034;3.744;2022-12-17T05:19:22;-2.30;99.90
21625;DHT22;10974;51.034;3.744;2022-12-17T05:22:06;-2.40;99.90
21625;DHT22;10974;51.034;3.744;2022-12-17T05:24:50;-2.40;99.90
21625;DHT22;10974;51.034;3.744;2022-12-17T05:27:34;-2.40;99.90
21625;DHT22;10974;51.034;3.744;2022-12-17T05:30:18;-2.40;99.90
21625;DHT22;10974;51.034;3.744;2022-12-17T05:33:02;-2.40;99.90
21625;DHT22;10974;51.034;3.744;2022-12-17T05:35:47;-2.40;99.90
21625;DHT22;10974;51.034;3.744;2022-12-17T05:38:32;-2.40;99.90
21625;DHT22;10974;51.034;3.744;2022-12-17T05:41:16;-2.40;99.90
21625;DHT22;10974;51.034;3.744;2022-12-17T05:44:00;-2.30;99.90
21625;DHT22;10974;51.034;3.744;2022-12-17T05:46:44;-2.30;99.90
21625;DHT22;10974;51.034;3.744;2022-12-17T05:49:28;-2.40;99.90
21625;DHT22;10974;51.034;3.744;2022-12-17T05:52:13;-2.40;99.90
21625;DHT22;10974;51.034;3.744;2022-12-17T05:55:08;-2.30;99.90
21625;DHT22;10974;51.034;3.744;2022-12-17T05:57:52;-2.30;99.90
21625;DHT22;10974;51.034;3.744;2022-12-17T06:00:43;-2.30;99.90
21625;DHT22;10974;51.034;3.744;2022-12-17T06:03:27;-2.10;99.90
21625;DHT22;10974;51.034;3.744;2022-12-17T06:06:12;-2.40;99.90
21625;DHT22;10974;51.034;3.744;2022-12-17T06:08:56;-2.40;99.90
21625;DHT22;10974;51.034;3.744;2022-12-17T06:11:40;-2.40;99.90
21625;DHT22;10974;51.034;3.744;2022-12-17T06:14:24;-2.30;99.90
21625;DHT22;10974;51.034;3.744;2022-12-17T06:17:08;-2.40;99.90
21625;DHT22;10974;51.034;3.744;2022-12-17T06:19:52;-2.40;99.90
21625;DHT22;10974;51.034;3.744;2022-12-17T06:22:36;-2.40;99.90
21625;DHT22;10974;51.034;3.744;2022-12-17T06:25:21;-2.50;99.90
21625;DHT22;10974;51.034;3.744;2022-12-17T06:28:05;-2.50;99.90
21625;DHT22;10974;51.034;3.744;2022-12-17T06:30:53;-2.50;99.90
21625;DHT22;10974;51.034;3.744;2022-12-17T06:33:38;-2.50;99.90
21625;DHT22;10974;51.034;3.744;2022-12-17T06:36:23;-2.60;99.90
21625;DHT22;10974;51.034;3.744;2022-12-17T06:39:07;-2.20;99.90
21625;DHT22;10974;51.034;3.744;2022-12-17T06:41:52;-2.30;99.90
21625;DHT22;10974;51.034;3.744;2022-12-17T06:44:36;-2.30;99.90
21625;DHT22;10974;51.034;3.744;2022-12-17T06:47:20;-2.40;99.90
21625;DHT22;10974;51.034;3.744;2022-12-17T06:50:05;-2.40;99.90
21625;DHT22;10974;51.034;3.744;2022-12-17T06:53:04;-2.50;99.90
21625;DHT22;10974;51.034;3.744;2022-12-17T06:55:48;-2.40;99.90
21625;DHT22;10974;51.034;3.744;2022-12-17T06:58:33;-2.40;99.90
21625;DHT22;10974;51.034;3.744;2022-12-17T07:01:17;-2.40;99.90
21625;DHT22;10974;51.034;3.744;2022-12-17T07:04:02;-2.30;99.90
21625;DHT22;10974;51.034;3.744;2022-12-17T07:06:46;-2.50;99.90
21625;DHT22;10974;51.034;3.744;2022-12-17T07:09:44;-2.60;99.90
21625;DHT22;10974;51.034;3.744;2022-12-17T07:12:28;-2.60;99.90
21625;DHT22;10974;51.034;3.744;2022-12-17T07:15:13;-2.40;99.90
21625;DHT22;10974;51.034;3.744;2022-12-17T07:17:58;-2.40;99.90
21625;DHT22;10974;51.034;3.744;2022-12-17T07:20:43;-2.20;99.90
21625;DHT22;10974;51.034;3.744;2022-12-17T07:23:28;-2.30;99.90
21625;DHT22;10974;51.034;3.744;2022-12-17T07:26:12;-2.30;99.90
21625;DHT22;10974;51.034;3.744;2022-12-17T07:28:56;-2.00;99.90
21625;DHT22;10974;51.034;3.744;2022-12-17T07:31:41;-2.00;99.90
21625;DHT22;10974;51.034;3.744;2022-12-17T07:34:25;-2.20;99.90
21625;DHT22;10974;51.034;3.744;2022-12-17T07:37:09;-2.20;99.90
21625;DHT22;10974;51.034;3.744;2022-12-17T07:39:53;-2.30;99.90
21625;DHT22;10974;51.034;3.744;2022-12-17T07:42:38;-2.30;99.90
21625;DHT22;10974;51.034;3.744;2022-12-17T07:45:22;-2.40;99.90
21625;DHT22;10974;51.034;3.744;2022-12-17T07:48:06;-2.40;99.90
21625;DHT22;10974;51.034;3.744;2022-12-17T07:50:51;-2.40;99.90
21625;DHT22;10974;51.034;3.744;2022-12-17T07:53:35;-2.50;99.90
21625;DHT22;10974;51.034;3.744;2022-12-17T07:56:19;-2.50;99.90
21625;DHT22;10974;51.034;3.744;2022-12-17T07:59:04;-2.40;99.90
21625;DHT22;10974;51.034;3.744;2022-12-17T08:01:48;-2.30;99.90
21625;DHT22;10974;51.034;3.744;2022-12-17T08:04:32;-2.50;99.90
21625;DHT22;10974;51.034;3.744;2022-12-17T08:07:17;-2.50;99.90
21625;DHT22;10974;51.034;3.744;2022-12-17T08:10:01;-2.40;99.90
21625;DHT22;10974;51.034;3.744;2022-12-17T08:12:58;-2.40;99.90
21625;DHT22;10974;51.034;3.744;2022-12-17T08:15:42;-2.40;99.90
21625;DHT22;10974;51.034;3.744;2022-12-17T08:18:27;-2.30;99.90
21625;DHT22;10974;51.034;3.744;2022-12-17T08:21:11;-2.30;99.90
21625;DHT22;10974;51.034;3.744;2022-12-17T08:23:55;-2.20;99.90
21625;DHT22;10974;51.034;3.744;2022-12-17T08:26:39;-2.20;99.90
21625;DHT22;10974;51.034;3.744;2022-12-17T08:29:23;-2.30;99.90
21625;DHT22;10974;51.034;3.744;2022-12-17T08:32:08;-2.40;99.90
21625;DHT22;10974;51.034;3.744;2022-12-17T08:34:52;-2.40;99.90
21625;DHT22;10974;51.034;3.744;2022-12-17T08:37:36;-2.40;99.90
21625;DHT22;10974;51.034;3.744;2022-12-17T08:40:20;-2.20;99.90
21625;DHT22;10974;51.034;3.744;2022-12-17T08:43:04;-2.10;99.90
21625;DHT22;10974;51.034;3.744;2022-12-17T08:45:50;-2.10;99.90
21625;DHT22;10974;51.034;3.744;2022-12-17T08:48:35;-2.10;99.90
21625;DHT22;10974;51.034;3.744;2022-12-17T08:51:20;-1.90;99.90
21625;DHT22;10974;51.034;3.744;2022-12-17T08:54:04;-2.00;99.90
21625;DHT22;10974;51.034;3.744;2022-12-17T08:56:48;-2.00;99.90
21625;DHT22;10974;51.034;3.744;2022-12-17T08:59:32;-2.00;99.90
21625;DHT22;10974;51.034;3.744;2022-12-17T09:02:16;-2.10;99.90
21625;DHT22;10974;51.034;3.744;2022-12-17T09:05:00;-2.10;99.90
21625;DHT22;10974;51.034;3.744;2022-12-17T09:07:45;-2.10;99.90
21625;DHT22;10974;51.034;3.744;2022-12-17T09:10:29;-1.90;99.90
21625;DHT22;10974;51.034;3.744;2022-12-17T09:13:13;-1.80;99.90
21625;DHT22;10974;51.034;3.744;2022-12-17T09:15:57;-1.80;99.90
21625;DHT22;10974;51.034;3.744;2022-12-17T09:18:42;-1.80;99.90
21625;DHT22;10974;51.034;3.744;2022-12-17T09:21:30;-1.60;99.90
21625;DHT22;10974;51.034;3.744;2022-12-17T09:24:15;-1.70;99.90
21625;DHT22;10974;51.034;3.744;2022-12-17T09:26:59;-1.50;99.90
21625;DHT22;10974;51.034;3.744;2022-12-17T09:29:44;-1.40;99.90
21625;DHT22;10974;51.034;3.744;2022-12-17T09:32:29;-1.40;99.90
21625;DHT22;10974;51.034;3.744;2022-12-17T09:35:13;-1.40;99.90
21625;DHT22;10974;51.034;3.744;2022-12-17T09:37:57;-1.30;99.90
21625;DHT22;10974;51.034;3.744;2022-12-17T09:40:49;-1.10;99.90
21625;DHT22;10974;51.034;3.744;2022-12-17T09:49:55;-0.80;99.90
21625;DHT22;10974;51.034;3.744;2022-12-17T09:52:41;-0.90;99.90
21625;DHT22;10974;51.034;3.744;2022-12-17T09:55:49;-0.70;99.90
21625;DHT22;10974;51.034;3.744;2022-12-17T09:58:35;-0.60;99.90
21625;DHT22;10974;51.034;3.744;2022-12-17T10:01:27;-0.50;99.90
21625;DHT22;10974;51.034;3.744;2022-12-17T10:04:18;-0.50;99.90
21625;DHT22;10974;51.034;3.744;2022-12-17T10:07:10;-0.30;99.90
21625;DHT22;10974;51.034;3.744;2022-12-17T10:09:56;-0.30;99.90
21625;DHT22;10974;51.034;3.744;2022-12-17T10:12:43;-0.10;99.90
21625;DHT22;10974;51.034;3.744;2022-12-17T10:15:27;0.10;99.90
21625;DHT22;10974;51.034;3.744;2022-12-17T10:18:12;0.20;99.90
21625;DHT22;10974;51.034;3.744;2022-12-17T10:21:01;0.00;99.90
21625;DHT22;10974;51.034;3.744;2022-12-17T10:23:48;0.10;99.90
21625;DHT22;10974;51.034;3.744;2022-12-17T10:26:33;0.10;99.90
21625;DHT22;10974;51.034;3.744;2022-12-17T10:34:57;0.50;99.90
21625;DHT22;10974;51.034;3.744;2022-12-17T10:37:42;0.60;99.90
21625;DHT22;10974;51.034;3.744;2022-12-17T10:40:27;0.60;99.90
21625;DHT22;10974;51.034;3.744;2022-12-17T10:43:27;0.70;99.90
21625;DHT22;10974;51.034;3.744;2022-12-17T10:46:25;0.70;99.90
21625;DHT22;10974;51.034;3.744;2022-12-17T10:49:14;0.90;99.90
21625;DHT22;10974;51.034;3.744;2022-12-17T10:55:02;1.10;99.90
21625;DHT22;10974;51.034;3.744;2022-12-17T10:57:48;1.20;99.90
21625;DHT22;10974;51.034;3.744;2022-12-17T11:00:36;1.20;99.90
21625;DHT22;10974;51.034;3.744;2022-12-17T11:03:38;1.30;99.90
21625;DHT22;10974;51.034;3.744;2022-12-17T11:06:32;1.30;99.90
21625;DHT22;10974;51.034;3.744;2022-12-17T11:15:37;1.40;99.90
21625;DHT22;10974;51.034;3.744;2022-12-17T11:18:34;1.40;99.90
21625;DHT22;10974;51.034;3.744;2022-12-17T11:21:24;1.50;99.90
21625;DHT22;10974;51.034;3.744;2022-12-17T11:24:25;1.60;99.90
21625;DHT22;10974;51.034;3.744;2022-12-17T11:27:17;1.60;99.90
21625;DHT22;10974;51.034;3.744;2022-12-17T11:30:13;1.60;99.90
21625;DHT22;10974;51.034;3.744;2022-12-17T11:39:05;1.60;99.90
21625;DHT22;10974;51.034;3.744;2022-12-17T11:42:01;1.60;99.90
21625;DHT22;10974;51.034;3.744;2022-12-17T11:48:07;1.70;99.90
21625;DHT22;10974;51.034;3.744;2022-12-17T11:58:39;1.70;99.90
21625;DHT22;10974;51.034;3.744;2022-12-17T12:07:23;1.70;99.90
21625;DHT22;10974;51.034;3.744;2022-12-17T12:13:25;1.90;99.90
21625;DHT22;10974;51.034;3.744;2022-12-17T12:19:58;1.90;99.90
21625;DHT22;10974;51.034;3.744;2022-12-17T12:22:47;1.90;99.90
21625;DHT22;10974;51.034;3.744;2022-12-17T12:26:08;2.00;99.90
21625;DHT22;10974;51.034;3.744;2022-12-17T12:34:39;2.00;99.90
21625;DHT22;10974;51.034;3.744;2022-12-17T12:37:25;2.10;99.90
21625;DHT22;10974;51.034;3.744;2022-12-17T12:49:32;2.20;99.90
21625;DHT22;10974;51.034;3.744;2022-12-17T12:52:23;2.10;99.90
21625;DHT22;10974;51.034;3.744;2022-12-17T12:55:08;2.10;99.90
21625;DHT22;10974;51.034;3.744;2022-12-17T12:57:59;2.30;99.90
21625;DHT22;10974;51.034;3.744;2022-12-17T13:03:37;2.30;99.90
21625;DHT22;10974;51.034;3.744;2022-12-17T13:11:47;2.30;99.90
21625;DHT22;10974;51.034;3.744;2022-12-17T13:17:30;2.10;99.90
21625;DHT22;10974;51.034;3.744;2022-12-17T13:24:50;2.00;99.90
21625;DHT22;10974;51.034;3.744;2022-12-17T13:30:19;2.00;99.90
21625;DHT22;10974;51.034;3.744;2022-12-17T13:41:20;2.00;99.90
21625;DHT22;10974;51.034;3.744;2022-12-17T13:43:52;1.90;99.90
21625;DHT22;10974;51.034;3.744;2022-12-17T13:46:42;1.90;99.90
21625;DHT22;10974;51.034;3.744;2022-12-17T13:49:28;1.90;99.90
21625;DHT22;10974;51.034;3.744;2022-12-17T13:52:13;1.90;99.90
21625;DHT22;10974;51.034;3.744;2022-12-17T13:54:40;1.80;99.90
21625;DHT22;10974;51.034;3.744;2022-12-17T13:57:13;1.80;99.90
21625;DHT22;10974;51.034;3.744;2022-12-17T13:59:40;1.70;99.90
21625;DHT22;10974;51.034;3.744;2022-12-17T14:02:25;1.60;99.90
21625;DHT22;10974;51.034;3.744;2022-12-17T14:04:53;1.60;99.90
21625;DHT22;10974;51.034;3.744;2022-12-17T14:07:19;1.60;99.90
21625;DHT22;10974;51.034;3.744;2022-12-17T14:09:47;1.60;99.90
21625;DHT22;10974;51.034;3.744;2022-12-17T14:12:13;1.50;99.90
21625;DHT22;10974;51.034;3.744;2022-12-17T14:14:47;1.50;99.90
21625;DHT22;10974;51.034;3.744;2022-12-17T14:17:16;1.40;99.90
21625;DHT22;10974;51.034;3.744;2022-12-17T14:19:42;1.30;99.90
21625;DHT22;10974;51.034;3.744;2022-12-17T14:22:15;1.30;99.90
21625;DHT22;10974;51.034;3.744;2022-12-17T14:24:44;1.30;99.90
21625;DHT22;10974;51.034;3.744;2022-12-17T14:27:26;1.20;99.90
21625;DHT22;10974;51.034;3.744;2022-12-17T14:29:55;1.20;99.90
21625;DHT22;10974;51.034;3.744;2022-12-17T14:32:29;1.20;99.90
21625;DHT22;10974;51.034;3.744;2022-12-17T14:34:55;1.20;99.90
21625;DHT22;10974;51.034;3.744;2022-12-17T14:37:23;1.10;99.90
21625;DHT22;10974;51.034;3.744;2022-12-17T14:39:49;1.10;99.90
21625;DHT22;10974;51.034;3.744;2022-12-17T14:42:22;1.10;99.90
21625;DHT22;10974;51.034;3.744;2022-12-17T14:45:00;1.00;99.90
21625;DHT22;10974;51.034;3.744;2022-12-17T14:47:29;1.10;99.90
21625;DHT22;10974;51.034;3.744;2022-12-17T14:52:43;0.90;99.90
21625;DHT22;10974;51.034;3.744;2022-12-17T14:55:38;0.90;99.90
21625;DHT22;10974;51.034;3.744;2022-12-17T14:58:18;0.80;99.90
21625;DHT22;10974;51.034;3.744;2022-12-17T15:05:52;0.70;99.90
21625;DHT22;10974;51.034;3.744;2022-12-17T15:08:20;0.70;99.90
21625;DHT22;10974;51.034;3.744;2022-12-17T15:10:46;0.70;99.90
21625;DHT22;10974;51.034;3.744;2022-12-17T15:13:11;0.70;99.90
21625;DHT22;10974;51.034;3.744;2022-12-17T15:15:37;0.70;99.90
21625;DHT22;10974;51.034;3.744;2022-12-17T15:18:02;0.50;99.90
21625;DHT22;10974;51.034;3.744;2022-12-17T15:20:28;0.50;99.90
21625;DHT22;10974;51.034;3.744;2022-12-17T15:22:54;0.50;99.90
21625;DHT22;10974;51.034;3.744;2022-12-17T15:25:19;0.40;99.90
21625;DHT22;10974;51.034;3.744;2022-12-17T15:27:45;0.40;99.90
21625;DHT22;10974;51.034;3.744;2022-12-17T15:30:15;0.50;99.90
21625;DHT22;10974;51.034;3.744;2022-12-17T15:32:42;0.40;99.90
21625;DHT22;10974;51.034;3.744;2022-12-17T15:35:09;0.30;99.90
21625;DHT22;10974;51.034;3.744;2022-12-17T15:37:35;0.20;99.90
21625;DHT22;10974;51.034;3.744;2022-12-17T15:40:02;0.30;99.90
21625;DHT22;10974;51.034;3.744;2022-12-17T15:42:28;0.10;99.90
21625;DHT22;10974;51.034;3.744;2022-12-17T15:45:12;0.00;99.90
21625;DHT22;10974;51.034;3.744;2022-12-17T15:47:38;-0.10;99.90
21625;DHT22;10974;51.034;3.744;2022-12-17T15:50:04;-0.20;99.90
21625;DHT22;10974;51.034;3.744;2022-12-17T15:52:30;0.00;99.90
21625;DHT22;10974;51.034;3.744;2022-12-17T15:54:57;0.00;99.90
21625;DHT22;10974;51.034;3.744;2022-12-17T15:57:22;0.00;99.90
21625;DHT22;10974;51.034;3.744;2022-12-17T15:59:50;-0.10;99.90
21625;DHT22;10974;51.034;3.744;2022-12-17T16:02:15;0.00;99.90
21625;DHT22;10974;51.034;3.744;2022-12-17T16:04:41;0.00;99.90
21625;DHT22;10974;51.034;3.744;2022-12-17T16:07:07;0.00;99.90
21625;DHT22;10974;51.034;3.744;2022-12-17T16:09:33;0.10;99.90
21625;DHT22;10974;51.034;3.744;2022-12-17T16:11:58;0.00;99.90
21625;DHT22;10974;51.034;3.744;2022-12-17T16:14:24;0.00;99.90
21625;DHT22;10974;51.034;3.744;2022-12-17T16:16:50;0.10;99.90
21625;DHT22;10974;51.034;3.744;2022-12-17T16:19:16;0.00;99.90
21625;DHT22;10974;51.034;3.744;2022-12-17T16:21:42;0.00;99.90
21625;DHT22;10974;51.034;3.744;2022-12-17T16:24:08;0.00;99.90
21625;DHT22;10974;51.034;3.744;2022-12-17T16:26:35;0.00;99.90
21625;DHT22;10974;51.034;3.744;2022-12-17T16:29:01;0.00;99.90
21625;DHT22;10974;51.034;3.744;2022-12-17T16:31:27;0.00;99.90
21625;DHT22;10974;51.034;3.744;2022-12-17T16:33:52;0.00;99.90
21625;DHT22;10974;51.034;3.744;2022-12-17T16:36:20;-0.10;99.90
21625;DHT22;10974;51.034;3.744;2022-12-17T16:38:48;-0.20;99.90
21625;DHT22;10974;51.034;3.744;2022-12-17T16:41:15;-0.10;99.90
21625;DHT22;10974;51.034;3.744;2022-12-17T16:43:41;-0.20;99.90
21625;DHT22;10974;51.034;3.744;2022-12-17T16:46:23;-0.30;99.90
21625;DHT22;10974;51.034;3.744;2022-12-17T16:48:50;-0.30;99.90
21625;DHT22;10974;51.034;3.744;2022-12-17T16:51:18;-0.10;99.90
21625;DHT22;10974;51.034;3.744;2022-12-17T16:53:45;-0.10;99.90
21625;DHT22;10974;51.034;3.744;2022-12-17T16:56:20;-0.10;99.90
21625;DHT22;10974;51.034;3.744;2022-12-17T16:58:46;-0.10;99.90
21625;DHT22;10974;51.034;3.744;2022-12-17T17:01:12;-0.10;99.90
21625;DHT22;10974;51.034;3.744;2022-12-17T17:03:41;-0.10;99.90
21625;DHT22;10974;51.034;3.744;2022-12-17T17:06:08;-0.10;99.90
21625;DHT22;10974;51.034;3.744;2022-12-17T17:08:35;-0.10;99.90
21625;DHT22;10974;51.034;3.744;2022-12-17T17:11:22;-0.20;99.90
21625;DHT22;10974;51.034;3.744;2022-12-17T17:13:49;-0.10;99.90
21625;DHT22;10974;51.034;3.744;2022-12-17T17:16:16;-0.10;99.90
21625;DHT22;10974;51.034;3.744;2022-12-17T17:18:43;-0.10;99.90
21625;DHT22;10974;51.034;3.744;2022-12-17T17:23:49;-0.20;99.90
21625;DHT22;10974;51.034;3.744;2022-12-17T17:26:16;-0.10;99.90
21625;DHT22;10974;51.034;3.744;2022-12-17T17:28:43;-0.10;99.90
21625;DHT22;10974;51.034;3.744;2022-12-17T17:31:11;-0.20;99.90
21625;DHT22;10974;51.034;3.744;2022-12-17T17:33:39;-0.20;99.90
21625;DHT22;10974;51.034;3.744;2022-12-17T17:36:07;-0.20;99.90
21625;DHT22;10974;51.034;3.744;2022-12-17T17:38:34;-0.20;99.90
21625;DHT22;10974;51.034;3.744;2022-12-17T17:41:01;-0.20;99.90
21625;DHT22;10974;51.034;3.744;2022-12-17T17:43:27;-0.30;99.90
21625;DHT22;10974;51.034;3.744;2022-12-17T17:45:53;-0.40;99.90
21625;DHT22;10974;51.034;3.744;2022-12-17T17:48:20;-0.40;99.90
21625;DHT22;10974;51.034;3.744;2022-12-17T17:51:00;-0.30;99.90
21625;DHT22;10974;51.034;3.744;2022-12-17T17:53:26;-0.40;99.90
21625;DHT22;10974;51.034;3.744;2022-12-17T17:55:52;-0.40;99.90
21625;DHT22;10974;51.034;3.744;2022-12-17T17:58:18;-0.40;99.90
21625;DHT22;10974;51.034;3.744;2022-12-17T18:00:44;-0.50;99.90
21625;DHT22;10974;51.034;3.744;2022-12-17T18:03:09;-0.50;99.90
21625;DHT22;10974;51.034;3.744;2022-12-17T18:05:39;-0.50;99.90
21625;DHT22;10974;51.034;3.744;2022-12-17T18:08:07;-0.50;99.90
21625;DHT22;10974;51.034;3.744;2022-12-17T18:10:33;-0.50;99.90
21625;DHT22;10974;51.034;3.744;2022-12-17T18:12:58;-0.50;99.90
21625;DHT22;10974;51.034;3.744;2022-12-17T18:15:43;-0.50;99.90
21625;DHT22;10974;51.034;3.744;2022-12-17T18:18:09;-0.50;99.90
21625;DHT22;10974;51.034;3.744;2022-12-17T18:20:35;-0.40;99.90
21625;DHT22;10974;51.034;3.744;2022-12-17T18:23:00;-0.50;99.90
21625;DHT22;10974;51.034;3.744;2022-12-17T18:25:26;-0.60;99.90
21625;DHT22;10974;51.034;3.744;2022-12-17T18:27:52;-0.70;99.90
21625;DHT22;10974;51.034;3.744;2022-12-17T18:30:18;-0.80;99.90
21625;DHT22;10974;51.034;3.744;2022-12-17T18:32:44;-0.80;99.90
21625;DHT22;10974;51.034;3.744;2022-12-17T18:35:10;-0.90;99.90
21625;DHT22;10974;51.034;3.744;2022-12-17T18:37:36;-0.80;99.90
21625;DHT22;10974;51.034;3.744;2022-12-17T18:40:03;-0.90;99.90
21625;DHT22;10974;51.034;3.744;2022-12-17T18:42:30;-1.00;99.90
21625;DHT22;10974;51.034;3.744;2022-12-17T18:45:14;-1.00;99.90
21625;DHT22;10974;51.034;3.744;2022-12-17T18:47:40;-1.00;99.90
21625;DHT22;10974;51.034;3.744;2022-12-17T18:50:09;-1.10;99.90
21625;DHT22;10974;51.034;3.744;2022-12-17T18:52:34;-1.10;99.90
21625;DHT22;10974;51.034;3.744;2022-12-17T18:55:00;-1.30;99.90
21625;DHT22;10974;51.034;3.744;2022-12-17T18:57:26;-1.20;99.90
21625;DHT22;10974;51.034;3.744;2022-12-17T18:59:51;-1.20;99.90
21625;DHT22;10974;51.034;3.744;2022-12-17T19:02:17;-1.30;99.90
21625;DHT22;10974;51.034;3.744;2022-12-17T19:04:42;-1.30;99.90
21625;DHT22;10974;51.034;3.744;2022-12-17T19:07:08;-1.20;99.90
21625;DHT22;10974;51.034;3.744;2022-12-17T19:09:35;-1.30;99.90
21625;DHT22;10974;51.034;3.744;2022-12-17T19:12:04;-1.30;99.90
21625;DHT22;10974;51.034;3.744;2022-12-17T19:14:30;-1.30;99.90
21625;DHT22;10974;51.034;3.744;2022-12-17T19:16:56;-1.30;99.90
21625;DHT22;10974;51.034;3.744;2022-12-17T19:19:24;-1.50;99.90
21625;DHT22;10974;51.034;3.744;2022-12-17T19:21:50;-1.70;99.90
21625;DHT22;10974;51.034;3.744;2022-12-17T19:24:18;-1.70;99.90
21625;DHT22;10974;51.034;3.744;2022-12-17T19:26:45;-1.60;99.90
21625;DHT22;10974;51.034;3.744;2022-12-17T19:29:13;-1.50;99.90
21625;DHT22;10974;51.034;3.744;2022-12-17T19:31:39;-1.60;99.90
21625;DHT22;10974;51.034;3.744;2022-12-17T19:34:08;-1.80;99.90
21625;DHT22;10974;51.034;3.744;2022-12-17T19:36:35;-1.80;99.90
21625;DHT22;10974;51.034;3.744;2022-12-17T19:39:03;-1.80;99.90
21625;DHT22;10974;51.034;3.744;2022-12-17T19:41:30;-1.90;99.90
21625;DHT22;10974;51.034;3.744;2022-12-17T19:44:01;-2.00;99.90
21625;DHT22;10974;51.034;3.744;2022-12-17T19:46:30;-2.00;99.90
21625;DHT22;10974;51.034;3.744;2022-12-17T19:48:56;-1.90;99.90
21625;DHT22;10974;51.034;3.744;2022-12-17T19:51:23;-1.90;99.90
21625;DHT22;10974;51.034;3.744;2022-12-17T19:53:50;-2.00;99.90
21625;DHT22;10974;51.034;3.744;2022-12-17T19:56:22;-2.00;99.90
21625;DHT22;10974;51.034;3.744;2022-12-17T19:58:50;-1.90;99.90
21625;DHT22;10974;51.034;3.744;2022-12-17T20:01:22;-1.90;99.90
21625;DHT22;10974;51.034;3.744;2022-12-17T20:03:48;-1.90;99.90
21625;DHT22;10974;51.034;3.744;2022-12-17T20:06:16;-2.10;99.90
21625;DHT22;10974;51.034;3.744;2022-12-17T20:08:42;-2.10;99.90
21625;DHT22;10974;51.034;3.744;2022-12-17T20:11:10;-2.00;99.90
21625;DHT22;10974;51.034;3.744;2022-12-17T20:13:57;-1.90;99.90
21625;DHT22;10974;51.034;3.744;2022-12-17T20:16:22;-1.90;99.90
21625;DHT22;10974;51.034;3.744;2022-12-17T20:18:48;-1.90;99.90
21625;DHT22;10974;51.034;3.744;2022-12-17T20:21:14;-1.90;99.90
21625;DHT22;10974;51.034;3.744;2022-12-17T20:23:39;-1.90;99.90
21625;DHT22;10974;51.034;3.744;2022-12-17T20:26:08;-2.00;99.90
21625;DHT22;10974;51.034;3.744;2022-12-17T20:28:35;-1.90;99.90
21625;DHT22;10974;51.034;3.744;2022-12-17T20:31:01;-1.90;99.90
21625;DHT22;10974;51.034;3.744;2022-12-17T20:33:27;-1.90;99.90
21625;DHT22;10974;51.034;3.744;2022-12-17T20:35:53;-1.90;99.90
21625;DHT22;10974;51.034;3.744;2022-12-17T20:38:19;-2.00;99.90
21625;DHT22;10974;51.034;3.744;2022-12-17T20:40:45;-1.90;99.90
21625;DHT22;10974;51.034;3.744;2022-12-17T20:43:11;-1.70;99.90
21625;DHT22;10974;51.034;3.744;2022-12-17T20:45:36;-1.90;99.90
21625;DHT22;10974;51.034;3.744;2022-12-17T20:48:02;-1.90;99.90
21625;DHT22;10974;51.034;3.744;2022-12-17T20:50:28;-1.80;99.90
21625;DHT22;10974;51.034;3.744;2022-12-17T20:52:54;-1.80;99.90
21625;DHT22;10974;51.034;3.744;2022-12-17T20:55:22;-1.90;99.90
21625;DHT22;10974;51.034;3.744;2022-12-17T20:57:48;-1.90;99.90
21625;DHT22;10974;51.034;3.744;2022-12-17T21:00:13;-1.90;99.90
21625;DHT22;10974;51.034;3.744;2022-12-17T21:02:39;-2.00;99.90
21625;DHT22;10974;51.034;3.744;2022-12-17T21:05:05;-1.90;99.90
21625;DHT22;10974;51.034;3.744;2022-12-17T21:07:31;-1.90;99.90
21625;DHT22;10974;51.034;3.744;2022-12-17T21:09:56;-1.80;99.90
21625;DHT22;10974;51.034;3.744;2022-12-17T21:12:23;-1.80;99.90
21625;DHT22;10974;51.034;3.744;2022-12-17T21:15:08;-1.80;99.90
21625;DHT22;10974;51.034;3.744;2022-12-17T21:17:34;-1.90;99.90
21625;DHT22;10974;51.034;3.744;2022-12-17T21:19:59;-1.90;99.90
21625;DHT22;10974;51.034;3.744;2022-12-17T21:22:25;-1.90;99.90
21625;DHT22;10974;51.034;3.744;2022-12-17T21:24:50;-1.90;99.90
21625;DHT22;10974;51.034;3.744;2022-12-17T21:27:16;-1.80;99.90
21625;DHT22;10974;51.034;3.744;2022-12-17T21:29:42;-1.80;99.90
21625;DHT22;10974;51.034;3.744;2022-12-17T21:32:07;-1.90;99.90
21625;DHT22;10974;51.034;3.744;2022-12-17T21:34:33;-1.70;99.90
21625;DHT22;10974;51.034;3.744;2022-12-17T21:36:59;-1.80;99.90
21625;DHT22;10974;51.034;3.744;2022-12-17T21:39:25;-1.80;99.90
21625;DHT22;10974;51.034;3.744;2022-12-17T21:41:51;-1.90;99.90
21625;DHT22;10974;51.034;3.744;2022-12-17T21:44:35;-1.80;99.90
21625;DHT22;10974;51.034;3.744;2022-12-17T21:47:01;-1.90;99.90
21625;DHT22;10974;51.034;3.744;2022-12-17T21:49:27;-2.00;99.90
21625;DHT22;10974;51.034;3.744;2022-12-17T21:51:52;-2.00;99.90
21625;DHT22;10974;51.034;3.744;2022-12-17T21:54:18;-2.00;99.90
21625;DHT22;10974;51.034;3.744;2022-12-17T21:56:43;-2.00;99.90
21625;DHT22;10974;51.034;3.744;2022-12-17T21:59:10;-2.10;99.90
21625;DHT22;10974;51.034;3.744;2022-12-17T22:01:35;-2.10;99.90
21625;DHT22;10974;51.034;3.744;2022-12-17T22:04:02;-2.00;99.90
21625;DHT22;10974;51.034;3.744;2022-12-17T22:06:31;-1.90;99.90
21625;DHT22;10974;51.034;3.744;2022-12-17T22:08:57;-2.00;99.90
21625;DHT22;10974;51.034;3.744;2022-12-17T22:11:24;-2.10;99.90
21625;DHT22;10974;51.034;3.744;2022-12-17T22:13:51;-2.20;99.90
21625;DHT22;10974;51.034;3.744;2022-12-17T22:19:01;-2.20;99.90
21625;DHT22;10974;51.034;3.744;2022-12-17T22:21:36;-2.30;99.90
21625;DHT22;10974;51.034;3.744;2022-12-17T22:24:03;-2.30;99.90
21625;DHT22;10974;51.034;3.744;2022-12-17T22:26:28;-2.30;99.90
21625;DHT22;10974;51.034;3.744;2022-12-17T22:28:54;-2.30;99.90
21625;DHT22;10974;51.034;3.744;2022-12-17T22:31:21;-2.40;99.90
21625;DHT22;10974;51.034;3.744;2022-12-17T22:34:08;-2.40;99.90
21625;DHT22;10974;51.034;3.744;2022-12-17T22:36:35;-2.40;99.90